createdAt,value
2018-04-15T00:01:31.709Z,97116.42
2018-04-15T00:04:01.684Z,97111.45
2018-04-15T00:06:30.988Z,97097.52
2018-04-15T00:09:00.604Z,97101.68
2018-04-15T00:11:30.402Z,97110.47
2018-04-15T00:13:59.671Z,97113.30
2018-04-15T00:16:28.739Z,97116.86
2018-04-15T00:18:58.734Z,97122.56
2018-04-15T00:21:28.259Z,97105.05
2018-04-15T00:23:57.957Z,97097.70
2018-04-15T00:26:27.196Z,97098.69
2018-04-15T00:28:56.487Z,97091.10
2018-04-15T00:31:26.770Z,97087.52
2018-04-15T00:33:56.369Z,97084.69
2018-04-15T00:36:26.290Z,97076.52
2018-04-15T00:38:56.325Z,97063.21
2018-04-15T00:41:25.840Z,97051.45
2018-04-15T00:43:55.424Z,97036.37
2018-04-15T00:46:24.610Z,97037.30
2018-04-15T00:48:55.886Z,97034.52
2018-04-15T00:51:26.261Z,97031.50
2018-04-15T00:54:20.908Z,97030.90
2018-04-15T00:56:50.682Z,97021.92
2018-04-15T00:59:19.789Z,97023.06
2018-04-15T01:01:48.925Z,97021.87
2018-04-15T01:04:19.011Z,97018.85
2018-04-15T01:06:49.578Z,97006.30
2018-04-15T01:09:20.218Z,97007.08
2018-04-15T01:11:50.227Z,97006.89
2018-04-15T01:14:20.254Z,96993.00
2018-04-15T01:16:49.661Z,96979.41
2018-04-15T01:19:21.237Z,96982.23
2018-04-15T01:21:52.293Z,96973.91
2018-04-15T01:24:22.294Z,96960.80
2018-04-15T01:26:51.859Z,96959.17
2018-04-15T01:29:21.015Z,96960.95
2018-04-15T01:31:50.366Z,96951.59
2018-04-15T01:34:20.324Z,96954.55
2018-04-15T01:36:50.293Z,96955.14
2018-04-15T01:39:20.628Z,96944.38
2018-04-15T01:41:49.755Z,96955.20
2018-04-15T01:44:18.912Z,96948.71
2018-04-15T01:46:48.532Z,96955.44
2018-04-15T01:49:18.483Z,96958.62
2018-04-15T01:51:47.694Z,96963.38
2018-04-15T01:54:16.782Z,96970.47
2018-04-15T01:56:47.877Z,96959.77
2018-04-15T01:59:17.234Z,96955.39
2018-04-15T02:01:46.767Z,96953.61
2018-04-15T02:04:15.803Z,96958.11
2018-04-15T02:06:48.979Z,96957.12
2018-04-15T02:09:21.762Z,96945.78
2018-04-15T02:11:50.856Z,96944.58
2018-04-15T02:14:20.440Z,96941.99
2018-04-15T02:16:50.349Z,96949.68
2018-04-15T02:19:19.900Z,96952.86
2018-04-15T02:21:49.388Z,96954.83
2018-04-15T02:24:19.285Z,96960.79
2018-04-15T02:26:50.499Z,96960.95
2018-04-15T02:29:20.777Z,96961.94
2018-04-15T02:31:49.970Z,96967.48
2018-04-15T02:34:19.323Z,96958.12
2018-04-15T02:36:49.328Z,96969.41
2018-04-15T02:39:18.909Z,96965.00
2018-04-15T02:41:48.348Z,96962.66
2018-04-15T02:44:17.767Z,96964.05
2018-04-15T02:46:47.338Z,96967.58
2018-04-15T02:49:17.047Z,96946.51
2018-04-15T02:51:46.538Z,96927.02
2018-04-15T02:54:16.322Z,96905.05
2018-04-15T02:56:46.622Z,96897.71
2018-04-15T02:59:15.789Z,96903.77
2018-04-15T03:01:45.708Z,96899.05
2018-04-15T03:04:15.648Z,96885.17
2018-04-15T03:06:47.623Z,96844.44
2018-04-15T03:09:17.700Z,96801.83
2018-04-15T03:11:47.320Z,96795.61
2018-04-15T03:14:17.308Z,96815.23
2018-04-15T03:16:46.875Z,96831.41
2018-04-15T03:19:16.662Z,96843.80
2018-04-15T03:21:46.373Z,96843.20
2018-04-15T03:24:15.658Z,96828.52
2018-04-15T03:26:45.787Z,96814.80
2018-04-15T03:29:15.050Z,96803.89
2018-04-15T03:31:44.666Z,96804.24
2018-04-15T03:34:14.672Z,96812.81
2018-04-15T03:36:46.882Z,96814.78
2018-04-15T03:39:16.284Z,96819.70
2018-04-15T03:41:46.200Z,96834.73
2018-04-15T03:44:16.742Z,96844.05
2018-04-15T03:46:46.671Z,96841.45
2018-04-15T03:49:16.375Z,96845.22
2018-04-15T03:51:46.845Z,96844.23
2018-04-15T03:54:16.259Z,96845.97
2018-04-15T03:56:47.843Z,96855.28
2018-04-15T03:59:25.509Z,96847.70
2018-04-15T04:01:54.632Z,96858.17
2018-04-15T04:04:24.461Z,96868.28
2018-04-15T04:06:53.881Z,96857.38
2018-04-15T04:09:23.317Z,96850.24
2018-04-15T04:11:52.606Z,96860.78
2018-04-15T04:14:21.853Z,96870.66
2018-04-15T04:16:51.212Z,96865.30
2018-04-15T04:19:41.684Z,96868.47
2018-04-15T04:22:29.359Z,96882.11
2018-04-15T04:25:16.780Z,96871.20
2018-04-15T04:27:46.655Z,96841.61
2018-04-15T04:30:18.132Z,96837.05
2018-04-15T04:32:47.443Z,96835.41
2018-04-15T04:35:19.755Z,96845.72
2018-04-15T04:37:48.974Z,96852.07
2018-04-15T04:40:19.805Z,96853.64
2018-04-15T04:42:49.423Z,96856.81
2018-04-15T04:45:19.339Z,96867.68
2018-04-15T04:47:49.035Z,96863.92
2018-04-15T04:50:19.668Z,96859.14
2018-04-15T04:52:49.309Z,96861.23
2018-04-15T04:55:19.251Z,96874.56
2018-04-15T04:57:48.601Z,96863.47
2018-04-15T05:00:19.657Z,96856.31
2018-04-15T05:02:48.766Z,96860.24
2018-04-15T05:05:20.242Z,96851.11
2018-04-15T05:07:50.253Z,96868.56
2018-04-15T05:10:22.293Z,96881.05
2018-04-15T05:12:52.353Z,96903.05
2018-04-15T05:15:22.328Z,96906.80
2018-04-15T05:17:52.027Z,96898.48
2018-04-15T05:20:21.411Z,96889.73
2018-04-15T05:22:51.477Z,96886.16
2018-04-15T05:25:22.601Z,96869.10
2018-04-15T05:27:54.187Z,96867.31
2018-04-15T05:30:23.655Z,96871.48
2018-04-15T05:32:53.293Z,96884.13
2018-04-15T05:35:22.673Z,96907.50
2018-04-15T05:37:52.187Z,96915.03
2018-04-15T05:40:22.361Z,96912.66
2018-04-15T05:42:51.659Z,96904.08
2018-04-15T05:45:25.615Z,96915.19
2018-04-15T05:47:56.225Z,96913.16
2018-04-15T05:50:25.663Z,96920.68
2018-04-15T05:52:55.344Z,96940.91
2018-04-15T05:55:25.794Z,96937.67
2018-04-15T05:57:54.867Z,96943.06
2018-04-15T06:00:26.349Z,96942.30
2018-04-15T06:02:55.820Z,96938.72
2018-04-15T06:05:26.769Z,96888.77
2018-04-15T06:07:57.342Z,96875.08
2018-04-15T06:10:27.292Z,96908.44
2018-04-15T06:12:57.232Z,96911.77
2018-04-15T06:15:27.328Z,96923.51
2018-04-15T06:17:56.630Z,96903.69
2018-04-15T06:20:25.872Z,96869.64
2018-04-15T06:22:55.010Z,96836.79
2018-04-15T06:25:24.419Z,96830.44
2018-04-15T06:27:54.621Z,96829.05
2018-04-15T06:30:24.925Z,96832.39
2018-04-15T06:32:53.568Z,96825.40
2018-04-15T06:35:23.325Z,96830.09
2018-04-15T06:37:55.345Z,96824.20
2018-04-15T06:40:24.645Z,96811.11
2018-04-15T06:42:53.695Z,96812.61
2018-04-15T06:45:23.797Z,96828.70
2018-04-15T06:47:53.311Z,96826.12
2018-04-15T06:50:24.444Z,96830.00
2018-04-15T06:52:53.848Z,96853.18
2018-04-15T06:55:23.234Z,96856.36
2018-04-15T06:57:52.627Z,96844.91
2018-04-15T07:00:21.678Z,96838.61
2018-04-15T07:02:51.727Z,96827.91
2018-04-15T07:05:20.818Z,96836.84
2018-04-15T07:07:50.893Z,96841.84
2018-04-15T07:10:20.538Z,96829.35
2018-04-15T07:12:49.682Z,96821.58
2018-04-15T07:15:19.693Z,96830.34
2018-04-15T07:17:49.359Z,96837.09
2018-04-15T07:20:22.879Z,96834.55
2018-04-15T07:22:52.751Z,96841.01
2018-04-15T07:25:21.806Z,96856.97
2018-04-15T07:27:51.434Z,96870.25
2018-04-15T07:30:20.834Z,96881.19
2018-04-15T07:32:50.318Z,96872.52
2018-04-15T07:35:20.322Z,96844.81
2018-04-15T07:37:50.269Z,96828.42
2018-04-15T07:40:24.504Z,96832.24
2018-04-15T07:42:56.268Z,96847.31
2018-04-15T07:45:26.863Z,96839.52
2018-04-15T07:47:59.768Z,96844.94
2018-04-15T07:50:29.338Z,96857.47
2018-04-15T07:52:59.705Z,96855.14
2018-04-15T07:55:29.667Z,96843.05
2018-04-15T07:58:00.382Z,96831.95
2018-04-15T08:00:35.814Z,96830.86
2018-04-15T08:03:05.201Z,96830.86
2018-04-15T08:05:35.401Z,96824.11
2018-04-15T08:08:04.633Z,96828.28
2018-04-15T08:10:33.778Z,96823.77
2018-04-15T08:13:04.239Z,96821.53
2018-04-15T08:15:34.201Z,96822.22
2018-04-15T08:18:04.531Z,96817.91
2018-04-15T08:20:33.678Z,96814.37
2018-04-15T08:23:03.345Z,96817.55
2018-04-15T08:25:32.631Z,96816.20
2018-04-15T08:28:02.267Z,96829.69
2018-04-15T08:30:31.697Z,96837.19
2018-04-15T08:33:01.186Z,96838.13
2018-04-15T08:35:31.464Z,96855.19
2018-04-15T08:38:00.867Z,96848.59
2018-04-15T08:40:30.542Z,96845.58
2018-04-15T08:43:00.451Z,96862.19
2018-04-15T08:45:31.271Z,96866.30
2018-04-15T08:48:00.592Z,96879.09
2018-04-15T08:50:29.659Z,96855.69
2018-04-15T08:52:59.041Z,96853.90
2018-04-15T08:55:28.937Z,96858.27
2018-04-15T08:58:00.032Z,96855.50
2018-04-15T09:00:45.985Z,96873.94
2018-04-15T09:03:15.707Z,96863.02
2018-04-15T09:06:05.002Z,96844.39
2018-04-15T09:09:00.607Z,96849.38
2018-04-15T09:11:29.953Z,96842.45
2018-04-15T09:13:59.661Z,96839.29
2018-04-15T09:16:29.280Z,96841.91
2018-04-15T09:18:58.643Z,96834.42
2018-04-15T09:21:28.787Z,96828.81
2018-04-15T09:23:57.947Z,96813.88
2018-04-15T09:26:28.306Z,96827.22
2018-04-15T09:28:59.292Z,96838.77
2018-04-15T09:31:28.680Z,96840.21
2018-04-15T09:33:58.331Z,96832.33
2018-04-15T09:36:28.293Z,96825.63
2018-04-15T09:38:57.589Z,96824.88
2018-04-15T09:41:27.205Z,96820.52
2018-04-15T09:43:58.456Z,96823.13
2018-04-15T09:46:28.646Z,96825.33
2018-04-15T09:48:59.305Z,96823.09
2018-04-15T09:51:29.025Z,96823.98
2018-04-15T09:53:59.349Z,96825.83
2018-04-15T09:56:28.693Z,96822.11
2018-04-15T09:58:58.350Z,96827.08
2018-04-15T10:01:28.296Z,96825.23
2018-04-15T10:03:58.304Z,96829.86
2018-04-15T10:06:27.733Z,96847.27
2018-04-15T10:08:57.266Z,96858.32
2018-04-15T10:11:27.266Z,96869.37
2018-04-15T10:13:56.591Z,96867.28
2018-04-15T10:16:25.751Z,96871.65
2018-04-15T10:18:55.483Z,96872.45
2018-04-15T10:21:24.882Z,96878.38
2018-04-15T10:23:54.350Z,96863.52
2018-04-15T10:26:24.499Z,96909.26
